sensor_id;sensor_type;location;lat;lon;timestamp;pressure;altitude;pressure_sealevel;temperature
61977;BMP280;45905;50.570;10.428;2022-08-19T00:02:12;97463.38;;;20.65
61977;BMP280;45905;50.570;10.428;2022-08-19T00:04:39;97467.38;;;20.62
61977;BMP280;45905;50.570;10.428;2022-08-19T00:07:07;97462.69;;;20.59
61977;BMP280;45905;50.570;10.428;2022-08-19T00:09:34;97466.50;;;20.56
61977;BMP280;45905;50.570;10.428;2022-08-19T00:12:02;97463.38;;;20.54
61977;BMP280;45905;50.570;10.428;2022-08-19T00:14:30;97458.22;;;20.54
61977;BMP280;45905;50.570;10.428;2022-08-19T00:17:02;97453.09;;;20.54
61977;BMP280;45905;50.570;10.428;2022-08-19T00:19:30;97459.81;;;20.55
61977;BMP280;45905;50.570;10.428;2022-08-19T00:21:57;97455.44;;;20.56
61977;BMP280;45905;50.570;10.428;2022-08-19T00:24:25;97457.22;;;20.55
61977;BMP280;45905;50.570;10.428;2022-08-19T00:26:54;97452.09;;;20.55
61977;BMP280;45905;50.570;10.428;2022-08-19T00:29:43;97453.09;;;20.54
61977;BMP280;45905;50.570;10.428;2022-08-19T00:32:11;97451.53;;;20.53
61977;BMP280;45905;50.570;10.428;2022-08-19T00:34:39;97451.53;;;20.53
61977;BMP280;45905;50.570;10.428;2022-08-19T00:37:06;97443.78;;;20.53
61977;BMP280;45905;50.570;10.428;2022-08-19T00:39:34;97457.44;;;20.54
61977;BMP280;45905;50.570;10.428;2022-08-19T00:42:01;97453.53;;;20.51
61977;BMP280;45905;50.570;10.428;2022-08-19T00:44:29;97451.75;;;20.52
61977;BMP280;45905;50.570;10.428;2022-08-19T00:46:58;97449.94;;;20.52
61977;BMP280;45905;50.570;10.428;2022-08-19T00:50:03;97432.16;;;20.51
61977;BMP280;45905;50.570;10.428;2022-08-19T00:52:32;97431.16;;;20.52
61977;BMP280;45905;50.570;10.428;2022-08-19T00:55:03;97430.94;;;20.53
61977;BMP280;45905;50.570;10.428;2022-08-19T00:57:39;97422.88;;;20.50
61977;BMP280;45905;50.570;10.428;2022-08-19T01:00:11;97424.91;;;20.48
61977;BMP280;45905;50.570;10.428;2022-08-19T01:02:41;97423.00;;;20.44
61977;BMP280;45905;50.570;10.428;2022-08-19T01:05:16;97419.31;;;20.40
61977;BMP280;45905;50.570;10.428;2022-08-19T01:07:49;97416.22;;;20.38
61977;BMP280;45905;50.570;10.428;2022-08-19T01:10:23;97410.69;;;20.34
61977;BMP280;45905;50.570;10.428;2022-08-19T01:12:54;97418.63;;;20.33
61977;BMP280;45905;50.570;10.428;2022-08-19T01:15:29;97421.88;;;20.28
61977;BMP280;45905;50.570;10.428;2022-08-19T01:18:02;97421.09;;;20.28
61977;BMP280;45905;50.570;10.428;2022-08-19T01:20:31;97421.34;;;20.26
61977;BMP280;45905;50.570;10.428;2022-08-19T01:22:59;97413.28;;;20.23
61977;BMP280;45905;50.570;10.428;2022-08-19T01:25:44;97428.16;;;20.21
61977;BMP280;45905;50.570;10.428;2022-08-19T01:28:26;97426.59;;;20.20
61977;BMP280;45905;50.570;10.428;2022-08-19T01:31:10;97432.28;;;20.22
61977;BMP280;45905;50.570;10.428;2022-08-19T01:33:56;97432.28;;;20.22
61977;BMP280;45905;50.570;10.428;2022-08-19T01:36:33;97419.97;;;20.24
61977;BMP280;45905;50.570;10.428;2022-08-19T01:39:06;97416.84;;;20.22
61977;BMP280;45905;50.570;10.428;2022-08-19T01:41:36;97413.75;;;20.20
61977;BMP280;45905;50.570;10.428;2022-08-19T01:44:06;97412.19;;;20.19
61977;BMP280;45905;50.570;10.428;2022-08-19T01:46:47;97416.53;;;20.19
61977;BMP280;45905;50.570;10.428;2022-08-19T01:49:18;97410.81;;;20.17
61977;BMP280;45905;50.570;10.428;2022-08-19T01:51:46;97405.91;;;20.15
61977;BMP280;45905;50.570;10.428;2022-08-19T01:54:16;97407.47;;;20.16
61977;BMP280;45905;50.570;10.428;2022-08-19T01:57:01;97416.97;;;20.16
61977;BMP280;45905;50.570;10.428;2022-08-19T01:59:29;97402.53;;;20.15
61977;BMP280;45905;50.570;10.428;2022-08-19T02:01:57;97402.00;;;20.13
61977;BMP280;45905;50.570;10.428;2022-08-19T02:04:24;97403.81;;;20.12
61977;BMP280;45905;50.570;10.428;2022-08-19T02:06:52;97403.81;;;20.12
61977;BMP280;45905;50.570;10.428;2022-08-19T02:09:19;97399.66;;;20.11
61977;BMP280;45905;50.570;10.428;2022-08-19T02:11:46;97405.25;;;20.08
61977;BMP280;45905;50.570;10.428;2022-08-19T02:14:13;97408.81;;;20.07
61977;BMP280;45905;50.570;10.428;2022-08-19T02:16:41;97421.13;;;20.06
61977;BMP280;45905;50.570;10.428;2022-08-19T02:19:08;97415.97;;;20.06
61977;BMP280;45905;50.570;10.428;2022-08-19T02:21:36;97423.16;;;20.04
61977;BMP280;45905;50.570;10.428;2022-08-19T02:24:04;97413.53;;;19.99
61977;BMP280;45905;50.570;10.428;2022-08-19T02:26:32;97416.88;;;20.00
61977;BMP280;45905;50.570;10.428;2022-08-19T02:29:00;97420.22;;;20.00
61977;BMP280;45905;50.570;10.428;2022-08-19T02:31:27;97435.09;;;19.98
61977;BMP280;45905;50.570;10.428;2022-08-19T02:33:56;97425.59;;;19.99
61977;BMP280;45905;50.570;10.428;2022-08-19T02:36:25;97426.38;;;19.99
61977;BMP280;45905;50.570;10.428;2022-08-19T02:38:53;97432.66;;;20.03
61977;BMP280;45905;50.570;10.428;2022-08-19T02:41:31;97426.72;;;20.03
61977;BMP280;45905;50.570;10.428;2022-08-19T02:44:02;97432.41;;;20.05
61977;BMP280;45905;50.570;10.428;2022-08-19T02:46:50;97427.03;;;20.06
61977;BMP280;45905;50.570;10.428;2022-08-19T02:49:19;97420.31;;;20.05
61977;BMP280;45905;50.570;10.428;2022-08-19T02:51:47;97423.94;;;20.04
61977;BMP280;45905;50.570;10.428;2022-08-19T02:54:15;97421.59;;;20.03
61977;BMP280;45905;50.570;10.428;2022-08-19T02:56:44;97422.59;;;20.02
61977;BMP280;45905;50.570;10.428;2022-08-19T02:59:11;97423.59;;;20.01
61977;BMP280;45905;50.570;10.428;2022-08-19T03:01:41;97424.16;;;20.03
61977;BMP280;45905;50.570;10.428;2022-08-19T03:04:12;97433.44;;;20.04
61977;BMP280;45905;50.570;10.428;2022-08-19T03:06:44;97433.66;;;20.02
61977;BMP280;45905;50.570;10.428;2022-08-19T03:09:12;97443.94;;;20.02
61977;BMP280;45905;50.570;10.428;2022-08-19T03:11:40;97448.50;;;20.00
61977;BMP280;45905;50.570;10.428;2022-08-19T03:14:09;97446.94;;;19.99
61977;BMP280;45905;50.570;10.428;2022-08-19T03:16:50;97461.59;;;19.99
61977;BMP280;45905;50.570;10.428;2022-08-19T03:19:19;97460.38;;;20.01
61977;BMP280;45905;50.570;10.428;2022-08-19T03:21:48;97461.47;;;20.05
61977;BMP280;45905;50.570;10.428;2022-08-19T03:24:17;97466.59;;;20.05
61977;BMP280;45905;50.570;10.428;2022-08-19T03:26:51;97463.38;;;20.09
61977;BMP280;45905;50.570;10.428;2022-08-19T03:29:19;97462.38;;;20.10
61977;BMP280;45905;50.570;10.428;2022-08-19T03:32:01;97458.25;;;20.09
61977;BMP280;45905;50.570;10.428;2022-08-19T03:34:33;97466.94;;;20.08
61977;BMP280;45905;50.570;10.428;2022-08-19T03:37:10;97461.03;;;20.08
61977;BMP280;45905;50.570;10.428;2022-08-19T03:39:40;97446.81;;;20.06
61977;BMP280;45905;50.570;10.428;2022-08-19T03:42:10;97459.94;;;20.04
61977;BMP280;45905;50.570;10.428;2022-08-19T03:44:58;97461.94;;;20.02
61977;BMP280;45905;50.570;10.428;2022-08-19T03:47:25;97464.72;;;20.01
61977;BMP280;45905;50.570;10.428;2022-08-19T03:49:52;97468.28;;;20.00
61977;BMP280;45905;50.570;10.428;2022-08-19T03:52:19;97478.56;;;20.00
61977;BMP280;45905;50.570;10.428;2022-08-19T03:54:46;97470.28;;;19.98
61977;BMP280;45905;50.570;10.428;2022-08-19T03:57:14;97478.00;;;19.98
61977;BMP280;45905;50.570;10.428;2022-08-19T03:59:41;97476.44;;;19.97
61977;BMP280;45905;50.570;10.428;2022-08-19T04:02:11;97470.75;;;19.95
61977;BMP280;45905;50.570;10.428;2022-08-19T04:04:42;97472.34;;;19.96
61977;BMP280;45905;50.570;10.428;2022-08-19T04:07:13;97472.34;;;19.96
61977;BMP280;45905;50.570;10.428;2022-08-19T04:09:43;97474.34;;;19.94
61977;BMP280;45905;50.570;10.428;2022-08-19T04:12:10;97477.47;;;19.96
61977;BMP280;45905;50.570;10.428;2022-08-19T04:14:38;97483.16;;;19.98
61977;BMP280;45905;50.570;10.428;2022-08-19T04:17:06;97483.94;;;19.98
61977;BMP280;45905;50.570;10.428;2022-08-19T04:19:35;97496.00;;;19.98
61977;BMP280;45905;50.570;10.428;2022-08-19T04:22:04;97485.28;;;20.01
61977;BMP280;45905;50.570;10.428;2022-08-19T04:24:32;97486.50;;;19.98
61977;BMP280;45905;50.570;10.428;2022-08-19T04:27:01;97489.06;;;19.98
61977;BMP280;45905;50.570;10.428;2022-08-19T04:29:29;97479.00;;;19.97
61977;BMP280;45905;50.570;10.428;2022-08-19T04:31:58;97473.88;;;19.97
61977;BMP280;45905;50.570;10.428;2022-08-19T04:34:28;97485.50;;;19.99
61977;BMP280;45905;50.570;10.428;2022-08-19T04:36:58;97490.66;;;19.99
61977;BMP280;45905;50.570;10.428;2022-08-19T04:39:30;97490.88;;;19.98
61977;BMP280;45905;50.570;10.428;2022-08-19T04:42:18;97490.88;;;19.98
61977;BMP280;45905;50.570;10.428;2022-08-19T04:45:06;97491.44;;;20.00
61977;BMP280;45905;50.570;10.428;2022-08-19T04:47:40;97484.72;;;19.99
61977;BMP280;45905;50.570;10.428;2022-08-19T04:50:25;97483.28;;;20.03
61977;BMP280;45905;50.570;10.428;2022-08-19T04:52:53;97487.84;;;20.01
61977;BMP280;45905;50.570;10.428;2022-08-19T04:55:23;97481.72;;;20.02
61977;BMP280;45905;50.570;10.428;2022-08-19T04:57:53;97483.28;;;20.03
61977;BMP280;45905;50.570;10.428;2022-08-19T05:00:21;97480.81;;;20.07
61977;BMP280;45905;50.570;10.428;2022-08-19T05:02:48;97496.38;;;20.12
61977;BMP280;45905;50.570;10.428;2022-08-19T05:05:16;97485.06;;;20.13
61977;BMP280;45905;50.570;10.428;2022-08-19T05:07:44;97493.81;;;20.12
61977;BMP280;45905;50.570;10.428;2022-08-19T05:10:12;97488.66;;;20.12
61977;BMP280;45905;50.570;10.428;2022-08-19T05:12:39;97485.06;;;20.13
61977;BMP280;45905;50.570;10.428;2022-08-19T05:15:07;97498.47;;;20.15
61977;BMP280;45905;50.570;10.428;2022-08-19T05:17:37;97508.53;;;20.17
61977;BMP280;45905;50.570;10.428;2022-08-19T05:20:25;97500.63;;;20.18
61977;BMP280;45905;50.570;10.428;2022-08-19T05:23:11;97498.03;;;20.18
61977;BMP280;45905;50.570;10.428;2022-08-19T05:25:50;97493.69;;;20.19
61977;BMP280;45905;50.570;10.428;2022-08-19T05:28:19;97499.59;;;20.19
61977;BMP280;45905;50.570;10.428;2022-08-19T05:30:48;97505.31;;;20.21
61977;BMP280;45905;50.570;10.428;2022-08-19T05:33:18;97512.78;;;20.23
61977;BMP280;45905;50.570;10.428;2022-08-19T05:35:45;97512.56;;;20.24
61977;BMP280;45905;50.570;10.428;2022-08-19T05:38:13;97517.72;;;20.24
61977;BMP280;45905;50.570;10.428;2022-08-19T05:40:40;97517.72;;;20.24
61977;BMP280;45905;50.570;10.428;2022-08-19T05:43:08;97506.63;;;20.24
61977;BMP280;45905;50.570;10.428;2022-08-19T05:45:40;97512.56;;;20.24
61977;BMP280;45905;50.570;10.428;2022-08-19T05:48:11;97510.56;;;20.26
61977;BMP280;45905;50.570;10.428;2022-08-19T05:50:41;97514.69;;;20.27
61977;BMP280;45905;50.570;10.428;2022-08-19T05:53:08;97520.41;;;20.29
61977;BMP280;45905;50.570;10.428;2022-08-19T05:55:36;97524.09;;;20.33
61977;BMP280;45905;50.570;10.428;2022-08-19T05:58:05;97527.22;;;20.35
61977;BMP280;45905;50.570;10.428;2022-08-19T06:00:36;97534.75;;;20.36
61977;BMP280;45905;50.570;10.428;2022-08-19T06:03:04;97541.69;;;20.36
61977;BMP280;45905;50.570;10.428;2022-08-19T06:05:40;97550.38;;;20.35
61977;BMP280;45905;50.570;10.428;2022-08-19T06:08:18;97555.34;;;20.36
61977;BMP280;45905;50.570;10.428;2022-08-19T06:10:45;97561.44;;;20.35
61977;BMP280;45905;50.570;10.428;2022-08-19T06:13:12;97557.13;;;20.36
61977;BMP280;45905;50.570;10.428;2022-08-19T06:15:39;97552.75;;;20.36
61977;BMP280;45905;50.570;10.428;2022-08-19T06:18:11;97552.53;;;20.38
61977;BMP280;45905;50.570;10.428;2022-08-19T06:20:38;97551.53;;;20.39
61977;BMP280;45905;50.570;10.428;2022-08-19T06:23:22;97551.84;;;20.42
61977;BMP280;45905;50.570;10.428;2022-08-19T06:25:50;97562.50;;;20.45
61977;BMP280;45905;50.570;10.428;2022-08-19T06:28:17;97569.22;;;20.46
61977;BMP280;45905;50.570;10.428;2022-08-19T06:30:45;97559.72;;;20.47
61977;BMP280;45905;50.570;10.428;2022-08-19T06:33:12;97572.31;;;20.48
61977;BMP280;45905;50.570;10.428;2022-08-19T06:35:41;97578.50;;;20.47
61977;BMP280;45905;50.570;10.428;2022-08-19T06:38:08;97578.25;;;20.49
61977;BMP280;45905;50.570;10.428;2022-08-19T06:40:36;97575.47;;;20.50
61977;BMP280;45905;50.570;10.428;2022-08-19T06:43:05;97576.81;;;20.53
61977;BMP280;45905;50.570;10.428;2022-08-19T06:45:37;97582.31;;;20.56
61977;BMP280;45905;50.570;10.428;2022-08-19T06:48:06;97581.84;;;20.59
61977;BMP280;45905;50.570;10.428;2022-08-19T06:50:34;97586.75;;;20.61
61977;BMP280;45905;50.570;10.428;2022-08-19T06:53:05;97592.25;;;20.64
61977;BMP280;45905;50.570;10.428;2022-08-19T06:55:32;97590.00;;;20.67
61977;BMP280;45905;50.570;10.428;2022-08-19T06:58:04;97595.50;;;20.71
61977;BMP280;45905;50.570;10.428;2022-08-19T07:00:32;97589.34;;;20.72
61977;BMP280;45905;50.570;10.428;2022-08-19T07:03:00;97587.09;;;20.75
61977;BMP280;45905;50.570;10.428;2022-08-19T07:05:41;97590.44;;;20.76
61977;BMP280;45905;50.570;10.428;2022-08-19T07:08:13;97588.22;;;20.79
61977;BMP280;45905;50.570;10.428;2022-08-19T07:10:45;97578.47;;;20.81
61977;BMP280;45905;50.570;10.428;2022-08-19T07:13:12;97582.38;;;20.83
61977;BMP280;45905;50.570;10.428;2022-08-19T07:15:40;97584.50;;;20.86
61977;BMP280;45905;50.570;10.428;2022-08-19T07:18:08;97586.66;;;20.89
61977;BMP280;45905;50.570;10.428;2022-08-19T07:20:39;97577.69;;;20.92
61977;BMP280;45905;50.570;10.428;2022-08-19T07:23:09;97575.44;;;20.95
61977;BMP280;45905;50.570;10.428;2022-08-19T07:25:43;97581.72;;;20.99
61977;BMP280;45905;50.570;10.428;2022-08-19T07:28:19;97577.66;;;21.03
61977;BMP280;45905;50.570;10.428;2022-08-19T07:30:52;97590.09;;;21.06
61977;BMP280;45905;50.570;10.428;2022-08-19T07:33:19;97595.03;;;21.07
61977;BMP280;45905;50.570;10.428;2022-08-19T07:35:53;97594.22;;;21.07
61977;BMP280;45905;50.570;10.428;2022-08-19T07:38:22;97599.94;;;21.09
61977;BMP280;45905;50.570;10.428;2022-08-19T07:40:50;97597.91;;;21.11
61977;BMP280;45905;50.570;10.428;2022-08-19T07:43:21;97595.31;;;21.11
61977;BMP280;45905;50.570;10.428;2022-08-19T07:46:01;97586.97;;;21.15
61977;BMP280;45905;50.570;10.428;2022-08-19T07:48:44;97597.56;;;21.19
61977;BMP280;45905;50.570;10.428;2022-08-19T07:51:18;97603.50;;;21.19
61977;BMP280;45905;50.570;10.428;2022-08-19T07:54:03;97610.56;;;21.23
61977;BMP280;45905;50.570;10.428;2022-08-19T07:56:31;97612.94;;;21.25
61977;BMP280;45905;50.570;10.428;2022-08-19T07:58:59;97616.81;;;21.27
61977;BMP280;45905;50.570;10.428;2022-08-19T08:01:27;97621.75;;;21.29
61977;BMP280;45905;50.570;10.428;2022-08-19T08:03:57;97619.97;;;21.29
61977;BMP280;45905;50.570;10.428;2022-08-19T08:06:43;97616.16;;;21.32
61977;BMP280;45905;50.570;10.428;2022-08-19T08:09:38;97623.66;;;21.33
61977;BMP280;45905;50.570;10.428;2022-08-19T08:12:31;97627.81;;;21.34
61977;BMP280;45905;50.570;10.428;2022-08-19T08:15:11;97619.06;;;21.35
61977;BMP280;45905;50.570;10.428;2022-08-19T08:17:44;97619.59;;;21.37
61977;BMP280;45905;50.570;10.428;2022-08-19T08:20:19;97612.34;;;21.34
61977;BMP280;45905;50.570;10.428;2022-08-19T08:22:51;97618.81;;;21.37
61977;BMP280;45905;50.570;10.428;2022-08-19T08:25:43;97620.94;;;21.40
61977;BMP280;45905;50.570;10.428;2022-08-19T08:28:16;97613.56;;;21.43
61977;BMP280;45905;50.570;10.428;2022-08-19T08:30:47;97619.34;;;21.50
61977;BMP280;45905;50.570;10.428;2022-08-19T08:33:28;97612.72;;;21.54
61977;BMP280;45905;50.570;10.428;2022-08-19T08:36:05;97616.19;;;21.59
61977;BMP280;45905;50.570;10.428;2022-08-19T08:38:48;97612.91;;;21.63
61977;BMP280;45905;50.570;10.428;2022-08-19T08:41:31;97613.09;;;21.73
61977;BMP280;45905;50.570;10.428;2022-08-19T08:44:03;97611.41;;;21.79
61977;BMP280;45905;50.570;10.428;2022-08-19T08:46:53;97612.38;;;21.89
61977;BMP280;45905;50.570;10.428;2022-08-19T08:49:49;97620.06;;;22.00
61977;BMP280;45905;50.570;10.428;2022-08-19T08:52:31;97620.25;;;22.10
61977;BMP280;45905;50.570;10.428;2022-08-19T08:55:28;97635.13;;;22.19
61977;BMP280;45905;50.570;10.428;2022-08-19T08:58:12;97633.94;;;22.26
61977;BMP280;45905;50.570;10.428;2022-08-19T09:01:03;97628.09;;;22.31
61977;BMP280;45905;50.570;10.428;2022-08-19T09:03:43;97631.06;;;22.39
61977;BMP280;45905;50.570;10.428;2022-08-19T09:09:17;97629.19;;;22.51
61977;BMP280;45905;50.570;10.428;2022-08-19T09:12:51;97629.81;;;22.57
61977;BMP280;45905;50.570;10.428;2022-08-19T09:15:43;97630.94;;;22.61
61977;BMP280;45905;50.570;10.428;2022-08-19T09:18:25;97620.94;;;22.65
61977;BMP280;45905;50.570;10.428;2022-08-19T09:20:57;97621.53;;;22.72
61977;BMP280;45905;50.570;10.428;2022-08-19T09:23:28;97617.78;;;22.79
61977;BMP280;45905;50.570;10.428;2022-08-19T09:26:13;97616.81;;;22.85
61977;BMP280;45905;50.570;10.428;2022-08-19T09:28:46;97610.72;;;22.91
61977;BMP280;45905;50.570;10.428;2022-08-19T09:31:23;97601.00;;;22.97
61977;BMP280;45905;50.570;10.428;2022-08-19T09:33:51;97621.19;;;23.00
61977;BMP280;45905;50.570;10.428;2022-08-19T09:36:32;97618.91;;;23.04
61977;BMP280;45905;50.570;10.428;2022-08-19T09:39:06;97614.28;;;23.06
61977;BMP280;45905;50.570;10.428;2022-08-19T09:41:43;97604.72;;;23.06
61977;BMP280;45905;50.570;10.428;2022-08-19T09:44:25;97612.25;;;23.08
61977;BMP280;45905;50.570;10.428;2022-08-19T09:46:53;97615.91;;;23.12
61977;BMP280;45905;50.570;10.428;2022-08-19T09:49:20;97615.66;;;23.13
61977;BMP280;45905;50.570;10.428;2022-08-19T09:51:53;97602.50;;;23.14
61977;BMP280;45905;50.570;10.428;2022-08-19T09:54:23;97608.22;;;23.16
61977;BMP280;45905;50.570;10.428;2022-08-19T09:56:54;97611.38;;;23.18
61977;BMP280;45905;50.570;10.428;2022-08-19T09:59:21;97603.13;;;23.21
61977;BMP280;45905;50.570;10.428;2022-08-19T10:01:49;97594.88;;;23.24
61977;BMP280;45905;50.570;10.428;2022-08-19T10:04:17;97600.13;;;23.29
61977;BMP280;45905;50.570;10.428;2022-08-19T10:06:47;97603.34;;;23.36
61977;BMP280;45905;50.570;10.428;2022-08-19T10:09:20;97605.44;;;23.39
61977;BMP280;45905;50.570;10.428;2022-08-19T10:12:02;97604.41;;;23.40
61977;BMP280;45905;50.570;10.428;2022-08-19T10:14:32;97599.47;;;23.38
61977;BMP280;45905;50.570;10.428;2022-08-19T10:17:01;97600.81;;;23.41
61977;BMP280;45905;50.570;10.428;2022-08-19T10:19:44;97594.06;;;23.40
61977;BMP280;45905;50.570;10.428;2022-08-19T10:22:22;97597.75;;;23.44
61977;BMP280;45905;50.570;10.428;2022-08-19T10:24:52;97598.81;;;23.48
61977;BMP280;45905;50.570;10.428;2022-08-19T10:27:20;97599.13;;;23.51
61977;BMP280;45905;50.570;10.428;2022-08-19T10:29:47;97597.34;;;23.56
61977;BMP280;45905;50.570;10.428;2022-08-19T10:32:15;97599.47;;;23.59
61977;BMP280;45905;50.570;10.428;2022-08-19T10:34:42;97600.28;;;23.65
61977;BMP280;45905;50.570;10.428;2022-08-19T10:37:16;97577.88;;;23.70
61977;BMP280;45905;50.570;10.428;2022-08-19T10:39:57;97583.16;;;23.80
61977;BMP280;45905;50.570;10.428;2022-08-19T10:42:24;97587.31;;;23.81
61977;BMP280;45905;50.570;10.428;2022-08-19T10:44:51;97585.28;;;23.88
61977;BMP280;45905;50.570;10.428;2022-08-19T10:47:19;97580.16;;;23.92
61977;BMP280;45905;50.570;10.428;2022-08-19T10:49:55;97592.91;;;23.99
61977;BMP280;45905;50.570;10.428;2022-08-19T10:52:48;97591.44;;;24.08
61977;BMP280;45905;50.570;10.428;2022-08-19T10:55:29;97591.75;;;24.11
61977;BMP280;45905;50.570;10.428;2022-08-19T10:58:20;97586.09;;;24.14
61977;BMP280;45905;50.570;10.428;2022-08-19T11:00:56;97596.22;;;24.20
61977;BMP280;45905;50.570;10.428;2022-08-19T11:03:31;97590.56;;;24.23
61977;BMP280;45905;50.570;10.428;2022-08-19T11:06:12;97581.78;;;24.24
61977;BMP280;45905;50.570;10.428;2022-08-19T11:08:39;97585.91;;;24.25
61977;BMP280;45905;50.570;10.428;2022-08-19T11:11:09;97583.31;;;24.25
61977;BMP280;45905;50.570;10.428;2022-08-19T11:13:39;97589.31;;;24.30
61977;BMP280;45905;50.570;10.428;2022-08-19T11:16:12;97596.88;;;24.37
61977;BMP280;45905;50.570;10.428;2022-08-19T11:18:48;97589.41;;;24.40
61977;BMP280;45905;50.570;10.428;2022-08-19T11:21:20;97600.56;;;24.46
61977;BMP280;45905;50.570;10.428;2022-08-19T11:23:51;97603.41;;;24.44
61977;BMP280;45905;50.570;10.428;2022-08-19T11:26:22;97598.22;;;24.44
61977;BMP280;45905;50.570;10.428;2022-08-19T11:28:51;97586.84;;;24.45
61977;BMP280;45905;50.570;10.428;2022-08-19T11:31:24;97597.44;;;24.44
61977;BMP280;45905;50.570;10.428;2022-08-19T11:34:01;97596.94;;;24.42
61977;BMP280;45905;50.570;10.428;2022-08-19T11:36:30;97599.22;;;24.38
61977;BMP280;45905;50.570;10.428;2022-08-19T11:39:00;97600.78;;;24.39
61977;BMP280;45905;50.570;10.428;2022-08-19T11:41:27;97597.19;;;24.40
61977;BMP280;45905;50.570;10.428;2022-08-19T11:43:55;97609.59;;;24.43
61977;BMP280;45905;50.570;10.428;2022-08-19T11:46:26;97600.03;;;24.44
61977;BMP280;45905;50.570;10.428;2022-08-19T11:48:57;97597.75;;;24.47
61977;BMP280;45905;50.570;10.428;2022-08-19T11:51:27;97589.75;;;24.53
61977;BMP280;45905;50.570;10.428;2022-08-19T11:53:56;97587.25;;;24.63
61977;BMP280;45905;50.570;10.428;2022-08-19T11:56:26;97579.28;;;24.69
61977;BMP280;45905;50.570;10.428;2022-08-19T11:58:54;97580.88;;;24.75
61977;BMP280;45905;50.570;10.428;2022-08-19T12:01:25;97586.38;;;24.88
61977;BMP280;45905;50.570;10.428;2022-08-19T12:03:55;97589.81;;;24.94
61977;BMP280;45905;50.570;10.428;2022-08-19T12:06:31;97584.63;;;24.94
61977;BMP280;45905;50.570;10.428;2022-08-19T12:09:04;97575.53;;;24.91
61977;BMP280;45905;50.570;10.428;2022-08-19T12:11:33;97573.19;;;24.90
61977;BMP280;45905;50.570;10.428;2022-08-19T12:14:01;97578.38;;;24.90
61977;BMP280;45905;50.570;10.428;2022-08-19T12:16:30;97575.78;;;24.90
61977;BMP280;45905;50.570;10.428;2022-08-19T12:18:59;97569.56;;;24.91
61977;BMP280;45905;50.570;10.428;2022-08-19T12:21:33;97554.31;;;24.94
61977;BMP280;45905;50.570;10.428;2022-08-19T12:24:04;97578.66;;;24.98
61977;BMP280;45905;50.570;10.428;2022-08-19T12:26:32;97562.88;;;25.00
61977;BMP280;45905;50.570;10.428;2022-08-19T12:29:18;97562.09;;;24.99
61977;BMP280;45905;50.570;10.428;2022-08-19T12:31:50;97560.56;;;25.03
61977;BMP280;45905;50.570;10.428;2022-08-19T12:34:18;97562.09;;;25.04
61977;BMP280;45905;50.570;10.428;2022-08-19T12:36:47;97554.59;;;25.03
61977;BMP280;45905;50.570;10.428;2022-08-19T12:39:16;97552.53;;;25.05
61977;BMP280;45905;50.570;10.428;2022-08-19T12:41:43;97552.56;;;25.09
61977;BMP280;45905;50.570;10.428;2022-08-19T12:44:22;97549.19;;;25.14
61977;BMP280;45905;50.570;10.428;2022-08-19T12:46:55;97546.88;;;25.17
61977;BMP280;45905;50.570;10.428;2022-08-19T12:49:22;97548.44;;;25.23
61977;BMP280;45905;50.570;10.428;2022-08-19T12:52:10;97551.63;;;25.30
61977;BMP280;45905;50.570;10.428;2022-08-19T12:54:40;97558.63;;;25.34
61977;BMP280;45905;50.570;10.428;2022-08-19T12:57:08;97557.88;;;25.39
61977;BMP280;45905;50.570;10.428;2022-08-19T12:59:37;97552.72;;;25.44
61977;BMP280;45905;50.570;10.428;2022-08-19T13:02:07;97554.53;;;25.48
61977;BMP280;45905;50.570;10.428;2022-08-19T13:04:35;97561.03;;;25.50
61977;BMP280;45905;50.570;10.428;2022-08-19T13:07:04;97562.59;;;25.51
61977;BMP280;45905;50.570;10.428;2022-08-19T13:09:32;97566.50;;;25.54
61977;BMP280;45905;50.570;10.428;2022-08-19T13:11:59;97574.03;;;25.55
61977;BMP280;45905;50.570;10.428;2022-08-19T13:14:29;97576.34;;;25.57
61977;BMP280;45905;50.570;10.428;2022-08-19T13:16:59;97574.03;;;25.60
61977;BMP280;45905;50.570;10.428;2022-08-19T13:19:26;97573.78;;;25.62
61977;BMP280;45905;50.570;10.428;2022-08-19T13:21:54;97567.81;;;25.61
61977;BMP280;45905;50.570;10.428;2022-08-19T13:24:26;97574.03;;;25.65
61977;BMP280;45905;50.570;10.428;2022-08-19T13:27:03;97569.91;;;25.69
61977;BMP280;45905;50.570;10.428;2022-08-19T13:29:30;97561.59;;;25.72
61977;BMP280;45905;50.570;10.428;2022-08-19T13:32:15;97566.78;;;25.77
61977;BMP280;45905;50.570;10.428;2022-08-19T13:35:02;97553.84;;;25.82
61977;BMP280;45905;50.570;10.428;2022-08-19T13:37:30;97539.06;;;25.87
61977;BMP280;45905;50.570;10.428;2022-08-19T13:40:20;97547.13;;;26.00
61977;BMP280;45905;50.570;10.428;2022-08-19T13:42:53;97547.16;;;26.15
61977;BMP280;45905;50.570;10.428;2022-08-19T13:45:24;97551.31;;;26.25
61977;BMP280;45905;50.570;10.428;2022-08-19T13:47:56;97558.03;;;26.36
61977;BMP280;45905;50.570;10.428;2022-08-19T13:50:28;97561.66;;;26.45
61977;BMP280;45905;50.570;10.428;2022-08-19T13:52:56;97554.94;;;26.54
61977;BMP280;45905;50.570;10.428;2022-08-19T13:55:25;97555.97;;;26.53
61977;BMP280;45905;50.570;10.428;2022-08-19T13:57:57;97553.63;;;26.56
61977;BMP280;45905;50.570;10.428;2022-08-19T14:00:28;97553.91;;;26.60
61977;BMP280;45905;50.570;10.428;2022-08-19T14:02:57;97550.25;;;26.61
61977;BMP280;45905;50.570;10.428;2022-08-19T14:05:27;97553.34;;;26.62
61977;BMP280;45905;50.570;10.428;2022-08-19T14:07:56;97552.31;;;26.68
61977;BMP280;45905;50.570;10.428;2022-08-19T14:10:24;97556.47;;;26.69
61977;BMP280;45905;50.570;10.428;2022-08-19T14:12:58;97551.25;;;26.74
61977;BMP280;45905;50.570;10.428;2022-08-19T14:15:27;97549.69;;;26.78
61977;BMP280;45905;50.570;10.428;2022-08-19T14:17:55;97554.88;;;26.83
61977;BMP280;45905;50.570;10.428;2022-08-19T14:20:23;97559.53;;;26.91
61977;BMP280;45905;50.570;10.428;2022-08-19T14:22:53;97550.41;;;27.03
61977;BMP280;45905;50.570;10.428;2022-08-19T14:25:25;97540.78;;;27.13
61977;BMP280;45905;50.570;10.428;2022-08-19T14:27:54;97538.66;;;27.20
61977;BMP280;45905;50.570;10.428;2022-08-19T14:30:29;97526.66;;;27.24